sensor_id;sensor_type;location;lat;lon;timestamp;P1;durP1;ratioP1;P2;durP2;ratioP2
21639;SDS011;10981;45.462;10.974;2022-10-16T00:01:44;74.82;;;40.22;;
21639;SDS011;10981;45.462;10.974;2022-10-16T00:04:12;79.60;;;39.97;;
21639;SDS011;10981;45.462;10.974;2022-10-16T00:06:41;80.97;;;41.15;;
21639;SDS011;10981;45.462;10.974;2022-10-16T00:09:09;81.47;;;41.35;;
21639;SDS011;10981;45.462;10.974;2022-10-16T00:11:38;82.53;;;41.47;;
21639;SDS011;10981;45.462;10.974;2022-10-16T00:14:12;83.65;;;41.90;;
21639;SDS011;10981;45.462;10.974;2022-10-16T00:16:41;77.03;;;39.42;;
21639;SDS011;10981;45.462;10.974;2022-10-16T00:19:10;79.65;;;42.72;;
21639;SDS011;10981;45.462;10.974;2022-10-16T00:21:42;80.72;;;42.33;;
21639;SDS011;10981;45.462;10.974;2022-10-16T00:24:28;73.72;;;39.40;;
21639;SDS011;10981;45.462;10.974;2022-10-16T00:26:57;76.88;;;38.65;;
21639;SDS011;10981;45.462;10.974;2022-10-16T00:29:25;78.53;;;40.20;;
21639;SDS011;10981;45.462;10.974;2022-10-16T00:31:54;77.75;;;42.40;;
21639;SDS011;10981;45.462;10.974;2022-10-16T00:34:22;83.65;;;41.22;;
21639;SDS011;10981;45.462;10.974;2022-10-16T00:36:51;82.45;;;41.75;;
21639;SDS011;10981;45.462;10.974;2022-10-16T00:39:19;79.93;;;41.95;;
21639;SDS011;10981;45.462;10.974;2022-10-16T00:41:47;78.57;;;41.35;;
21639;SDS011;10981;45.462;10.974;2022-10-16T00:47:09;86.05;;;41.95;;
21639;SDS011;10981;45.462;10.974;2022-10-16T00:49:47;84.95;;;41.50;;
21639;SDS011;10981;45.462;10.974;2022-10-16T00:52:17;83.72;;;39.92;;
21639;SDS011;10981;45.462;10.974;2022-10-16T00:54:46;75.78;;;41.03;;
21639;SDS011;10981;45.462;10.974;2022-10-16T00:57:16;80.32;;;40.85;;
21639;SDS011;10981;45.462;10.974;2022-10-16T00:59:45;90.07;;;43.72;;
21639;SDS011;10981;45.462;10.974;2022-10-16T01:02:14;82.38;;;43.83;;
21639;SDS011;10981;45.462;10.974;2022-10-16T01:04:48;84.78;;;44.03;;
21639;SDS011;10981;45.462;10.974;2022-10-16T01:13:33;79.47;;;42.20;;
21639;SDS011;10981;45.462;10.974;2022-10-16T01:16:15;79.10;;;42.03;;
21639;SDS011;10981;45.462;10.974;2022-10-16T01:18:53;86.22;;;42.53;;
21639;SDS011;10981;45.462;10.974;2022-10-16T01:21:28;88.55;;;42.55;;
21639;SDS011;10981;45.462;10.974;2022-10-16T01:27:14;82.97;;;42.58;;
21639;SDS011;10981;45.462;10.974;2022-10-16T01:30:01;78.05;;;40.30;;
21639;SDS011;10981;45.462;10.974;2022-10-16T01:32:40;73.15;;;39.90;;
21639;SDS011;10981;45.462;10.974;2022-10-16T01:40:27;81.38;;;39.75;;
21639;SDS011;10981;45.462;10.974;2022-10-16T01:43:08;88.40;;;41.60;;
21639;SDS011;10981;45.462;10.974;2022-10-16T01:45:40;78.35;;;40.05;;
21639;SDS011;10981;45.462;10.974;2022-10-16T01:48:09;83.80;;;42.60;;
21639;SDS011;10981;45.462;10.974;2022-10-16T01:50:41;77.55;;;42.30;;
21639;SDS011;10981;45.462;10.974;2022-10-16T01:53:16;80.63;;;41.50;;
21639;SDS011;10981;45.462;10.974;2022-10-16T01:55:46;81.35;;;42.05;;
21639;SDS011;10981;45.462;10.974;2022-10-16T01:58:16;79.93;;;42.45;;
21639;SDS011;10981;45.462;10.974;2022-10-16T02:00:44;80.97;;;40.75;;
21639;SDS011;10981;45.462;10.974;2022-10-16T02:03:16;72.28;;;39.50;;
21639;SDS011;10981;45.462;10.974;2022-10-16T02:05:49;85.05;;;40.70;;
21639;SDS011;10981;45.462;10.974;2022-10-16T02:08:21;78.15;;;41.58;;
21639;SDS011;10981;45.462;10.974;2022-10-16T02:10:52;77.73;;;43.53;;
21639;SDS011;10981;45.462;10.974;2022-10-16T02:16:12;82.82;;;41.35;;
21639;SDS011;10981;45.462;10.974;2022-10-16T02:18:42;76.88;;;40.60;;
21639;SDS011;10981;45.462;10.974;2022-10-16T02:21:25;81.82;;;41.67;;
21639;SDS011;10981;45.462;10.974;2022-10-16T02:26:39;76.20;;;40.20;;
21639;SDS011;10981;45.462;10.974;2022-10-16T02:29:16;82.38;;;41.95;;
21639;SDS011;10981;45.462;10.974;2022-10-16T02:31:50;74.82;;;40.53;;
21639;SDS011;10981;45.462;10.974;2022-10-16T02:34:28;81.28;;;42.22;;
21639;SDS011;10981;45.462;10.974;2022-10-16T02:36:59;80.60;;;42.53;;
21639;SDS011;10981;45.462;10.974;2022-10-16T02:39:31;76.57;;;39.50;;
21639;SDS011;10981;45.462;10.974;2022-10-16T02:42:00;84.40;;;41.55;;
21639;SDS011;10981;45.462;10.974;2022-10-16T02:44:29;88.88;;;43.28;;
21639;SDS011;10981;45.462;10.974;2022-10-16T02:46:57;80.13;;;41.55;;
21639;SDS011;10981;45.462;10.974;2022-10-16T02:49:27;77.53;;;41.20;;
21639;SDS011;10981;45.462;10.974;2022-10-16T02:51:55;86.93;;;44.15;;
21639;SDS011;10981;45.462;10.974;2022-10-16T02:54:23;82.53;;;44.60;;
21639;SDS011;10981;45.462;10.974;2022-10-16T02:56:51;79.78;;;41.40;;
21639;SDS011;10981;45.462;10.974;2022-10-16T02:59:19;76.70;;;40.40;;
21639;SDS011;10981;45.462;10.974;2022-10-16T03:01:48;82.10;;;42.65;;
21639;SDS011;10981;45.462;10.974;2022-10-16T03:04:16;81.05;;;42.70;;
21639;SDS011;10981;45.462;10.974;2022-10-16T03:06:44;78.13;;;41.13;;
21639;SDS011;10981;45.462;10.974;2022-10-16T03:09:12;73.47;;;40.00;;
21639;SDS011;10981;45.462;10.974;2022-10-16T03:11:40;71.13;;;39.08;;
21639;SDS011;10981;45.462;10.974;2022-10-16T03:14:09;78.78;;;40.85;;
21639;SDS011;10981;45.462;10.974;2022-10-16T03:16:37;82.10;;;42.97;;
21639;SDS011;10981;45.462;10.974;2022-10-16T03:19:07;78.10;;;40.45;;
21639;SDS011;10981;45.462;10.974;2022-10-16T03:21:35;72.93;;;40.58;;
21639;SDS011;10981;45.462;10.974;2022-10-16T03:24:03;82.32;;;41.28;;
21639;SDS011;10981;45.462;10.974;2022-10-16T03:26:32;81.05;;;39.47;;
21639;SDS011;10981;45.462;10.974;2022-10-16T03:29:00;74.38;;;39.63;;
21639;SDS011;10981;45.462;10.974;2022-10-16T03:31:30;71.03;;;39.08;;
21639;SDS011;10981;45.462;10.974;2022-10-16T03:33:58;74.00;;;38.50;;
21639;SDS011;10981;45.462;10.974;2022-10-16T03:36:27;80.05;;;41.13;;
21639;SDS011;10981;45.462;10.974;2022-10-16T03:38:56;75.15;;;40.05;;
21639;SDS011;10981;45.462;10.974;2022-10-16T03:41:24;80.80;;;41.50;;
21639;SDS011;10981;45.462;10.974;2022-10-16T03:43:52;87.03;;;43.17;;
21639;SDS011;10981;45.462;10.974;2022-10-16T03:46:21;76.65;;;38.45;;
21639;SDS011;10981;45.462;10.974;2022-10-16T03:48:49;74.40;;;38.47;;
21639;SDS011;10981;45.462;10.974;2022-10-16T03:51:17;75.68;;;39.50;;
21639;SDS011;10981;45.462;10.974;2022-10-16T03:53:45;82.63;;;41.20;;
21639;SDS011;10981;45.462;10.974;2022-10-16T03:56:13;75.72;;;39.13;;
21639;SDS011;10981;45.462;10.974;2022-10-16T03:58:41;83.38;;;41.03;;
21639;SDS011;10981;45.462;10.974;2022-10-16T04:01:10;77.40;;;42.33;;
21639;SDS011;10981;45.462;10.974;2022-10-16T04:03:39;79.03;;;42.05;;
21639;SDS011;10981;45.462;10.974;2022-10-16T04:06:07;76.70;;;42.72;;
21639;SDS011;10981;45.462;10.974;2022-10-16T04:08:36;79.10;;;41.63;;
21639;SDS011;10981;45.462;10.974;2022-10-16T04:11:06;73.85;;;41.00;;
21639;SDS011;10981;45.462;10.974;2022-10-16T04:13:34;80.20;;;38.70;;
21639;SDS011;10981;45.462;10.974;2022-10-16T04:16:02;81.50;;;41.40;;
21639;SDS011;10981;45.462;10.974;2022-10-16T04:18:31;74.95;;;39.60;;
21639;SDS011;10981;45.462;10.974;2022-10-16T04:21:03;78.45;;;40.13;;
21639;SDS011;10981;45.462;10.974;2022-10-16T04:26:01;75.60;;;39.17;;
21639;SDS011;10981;45.462;10.974;2022-10-16T04:28:29;83.18;;;42.08;;
21639;SDS011;10981;45.462;10.974;2022-10-16T04:30:58;80.28;;;41.78;;
21639;SDS011;10981;45.462;10.974;2022-10-16T04:33:26;83.10;;;43.00;;
21639;SDS011;10981;45.462;10.974;2022-10-16T04:35:58;90.15;;;46.47;;
21639;SDS011;10981;45.462;10.974;2022-10-16T04:38:27;83.28;;;42.63;;
21639;SDS011;10981;45.462;10.974;2022-10-16T04:40:56;82.57;;;41.38;;
21639;SDS011;10981;45.462;10.974;2022-10-16T04:43:25;86.03;;;43.97;;
21639;SDS011;10981;45.462;10.974;2022-10-16T04:48:26;89.15;;;41.38;;
21639;SDS011;10981;45.462;10.974;2022-10-16T04:50:55;86.47;;;42.95;;
21639;SDS011;10981;45.462;10.974;2022-10-16T04:53:23;85.93;;;42.40;;
21639;SDS011;10981;45.462;10.974;2022-10-16T04:55:51;82.45;;;41.70;;
21639;SDS011;10981;45.462;10.974;2022-10-16T04:58:20;86.63;;;42.10;;
21639;SDS011;10981;45.462;10.974;2022-10-16T05:00:48;86.97;;;43.92;;
21639;SDS011;10981;45.462;10.974;2022-10-16T05:03:17;81.45;;;41.55;;
21639;SDS011;10981;45.462;10.974;2022-10-16T05:05:45;88.55;;;44.38;;
21639;SDS011;10981;45.462;10.974;2022-10-16T05:08:14;96.03;;;47.03;;
21639;SDS011;10981;45.462;10.974;2022-10-16T05:10:43;88.43;;;44.83;;
21639;SDS011;10981;45.462;10.974;2022-10-16T05:13:12;83.00;;;43.22;;
21639;SDS011;10981;45.462;10.974;2022-10-16T05:15:40;96.80;;;44.92;;
21639;SDS011;10981;45.462;10.974;2022-10-16T05:18:08;90.75;;;45.03;;
21639;SDS011;10981;45.462;10.974;2022-10-16T05:20:37;85.07;;;44.97;;
21639;SDS011;10981;45.462;10.974;2022-10-16T05:23:05;86.28;;;45.42;;
21639;SDS011;10981;45.462;10.974;2022-10-16T05:25:33;85.25;;;44.63;;
21639;SDS011;10981;45.462;10.974;2022-10-16T05:28:02;87.72;;;46.22;;
21639;SDS011;10981;45.462;10.974;2022-10-16T05:30:33;83.95;;;44.83;;
21639;SDS011;10981;45.462;10.974;2022-10-16T05:33:01;90.38;;;45.92;;
21639;SDS011;10981;45.462;10.974;2022-10-16T05:35:29;90.88;;;45.38;;
21639;SDS011;10981;45.462;10.974;2022-10-16T05:37:57;95.32;;;45.75;;
21639;SDS011;10981;45.462;10.974;2022-10-16T05:40:26;87.47;;;45.65;;
21639;SDS011;10981;45.462;10.974;2022-10-16T05:42:55;84.65;;;43.78;;
21639;SDS011;10981;45.462;10.974;2022-10-16T05:45:23;89.22;;;45.00;;
21639;SDS011;10981;45.462;10.974;2022-10-16T05:47:51;89.78;;;45.25;;
21639;SDS011;10981;45.462;10.974;2022-10-16T05:50:20;91.20;;;45.55;;
21639;SDS011;10981;45.462;10.974;2022-10-16T05:52:49;89.57;;;45.58;;
21639;SDS011;10981;45.462;10.974;2022-10-16T05:55:17;87.50;;;43.88;;
21639;SDS011;10981;45.462;10.974;2022-10-16T05:57:45;84.15;;;42.72;;
21639;SDS011;10981;45.462;10.974;2022-10-16T06:00:13;83.85;;;43.40;;
21639;SDS011;10981;45.462;10.974;2022-10-16T06:02:41;82.32;;;42.90;;
21639;SDS011;10981;45.462;10.974;2022-10-16T06:05:10;76.72;;;41.47;;
21639;SDS011;10981;45.462;10.974;2022-10-16T06:07:38;78.13;;;40.22;;
21639;SDS011;10981;45.462;10.974;2022-10-16T06:10:06;70.63;;;40.00;;
21639;SDS011;10981;45.462;10.974;2022-10-16T06:12:35;81.80;;;41.55;;
21639;SDS011;10981;45.462;10.974;2022-10-16T06:15:04;81.28;;;40.92;;
21639;SDS011;10981;45.462;10.974;2022-10-16T06:17:32;79.75;;;41.55;;
21639;SDS011;10981;45.462;10.974;2022-10-16T06:20:00;83.00;;;42.65;;
21639;SDS011;10981;45.462;10.974;2022-10-16T06:22:28;85.15;;;44.75;;
21639;SDS011;10981;45.462;10.974;2022-10-16T06:24:57;89.88;;;45.97;;
21639;SDS011;10981;45.462;10.974;2022-10-16T06:27:25;87.30;;;45.17;;
21639;SDS011;10981;45.462;10.974;2022-10-16T06:29:53;82.05;;;43.03;;
21639;SDS011;10981;45.462;10.974;2022-10-16T06:32:21;82.72;;;43.22;;
21639;SDS011;10981;45.462;10.974;2022-10-16T06:34:50;84.05;;;44.13;;
21639;SDS011;10981;45.462;10.974;2022-10-16T06:37:18;81.00;;;43.20;;
21639;SDS011;10981;45.462;10.974;2022-10-16T06:39:46;85.45;;;45.38;;
21639;SDS011;10981;45.462;10.974;2022-10-16T06:42:14;82.13;;;42.97;;
21639;SDS011;10981;45.462;10.974;2022-10-16T06:44:42;83.55;;;43.83;;
21639;SDS011;10981;45.462;10.974;2022-10-16T06:47:11;87.03;;;44.13;;
21639;SDS011;10981;45.462;10.974;2022-10-16T06:49:40;83.78;;;43.30;;
21639;SDS011;10981;45.462;10.974;2022-10-16T06:52:08;86.57;;;45.30;;
21639;SDS011;10981;45.462;10.974;2022-10-16T06:54:36;86.45;;;43.35;;
21639;SDS011;10981;45.462;10.974;2022-10-16T06:57:08;86.57;;;45.85;;
21639;SDS011;10981;45.462;10.974;2022-10-16T06:59:36;90.05;;;45.80;;
21639;SDS011;10981;45.462;10.974;2022-10-16T07:02:12;85.78;;;45.60;;
21639;SDS011;10981;45.462;10.974;2022-10-16T07:04:40;88.53;;;47.08;;
21639;SDS011;10981;45.462;10.974;2022-10-16T07:07:09;81.38;;;44.55;;
21639;SDS011;10981;45.462;10.974;2022-10-16T07:09:37;80.80;;;43.97;;
21639;SDS011;10981;45.462;10.974;2022-10-16T07:12:07;88.07;;;47.13;;
21639;SDS011;10981;45.462;10.974;2022-10-16T07:14:35;84.32;;;47.42;;
21639;SDS011;10981;45.462;10.974;2022-10-16T07:17:03;85.65;;;45.67;;
21639;SDS011;10981;45.462;10.974;2022-10-16T07:19:31;86.43;;;46.05;;
21639;SDS011;10981;45.462;10.974;2022-10-16T07:22:00;83.63;;;45.95;;
21639;SDS011;10981;45.462;10.974;2022-10-16T07:24:30;87.97;;;45.47;;
21639;SDS011;10981;45.462;10.974;2022-10-16T07:26:58;87.38;;;47.60;;
21639;SDS011;10981;45.462;10.974;2022-10-16T07:29:26;89.72;;;46.22;;
21639;SDS011;10981;45.462;10.974;2022-10-16T07:31:57;88.53;;;47.50;;
21639;SDS011;10981;45.462;10.974;2022-10-16T07:34:25;92.18;;;49.25;;
21639;SDS011;10981;45.462;10.974;2022-10-16T07:36:54;91.18;;;46.20;;
21639;SDS011;10981;45.462;10.974;2022-10-16T07:39:22;89.15;;;47.17;;
21639;SDS011;10981;45.462;10.974;2022-10-16T07:41:50;88.38;;;44.97;;
21639;SDS011;10981;45.462;10.974;2022-10-16T07:44:19;87.53;;;45.95;;
21639;SDS011;10981;45.462;10.974;2022-10-16T07:46:47;90.68;;;46.67;;
21639;SDS011;10981;45.462;10.974;2022-10-16T07:49:15;93.95;;;49.15;;
21639;SDS011;10981;45.462;10.974;2022-10-16T07:51:43;90.88;;;46.78;;
21639;SDS011;10981;45.462;10.974;2022-10-16T07:54:11;93.07;;;48.75;;
21639;SDS011;10981;45.462;10.974;2022-10-16T07:56:40;84.45;;;46.10;;
21639;SDS011;10981;45.462;10.974;2022-10-16T07:59:11;93.45;;;45.55;;
21639;SDS011;10981;45.462;10.974;2022-10-16T08:01:39;86.50;;;48.55;;
21639;SDS011;10981;45.462;10.974;2022-10-16T08:04:09;86.55;;;46.63;;
21639;SDS011;10981;45.462;10.974;2022-10-16T08:06:38;81.38;;;47.05;;
21639;SDS011;10981;45.462;10.974;2022-10-16T08:09:07;88.28;;;49.25;;
21639;SDS011;10981;45.462;10.974;2022-10-16T08:11:36;89.35;;;49.13;;
21639;SDS011;10981;45.462;10.974;2022-10-16T08:14:04;85.97;;;46.47;;
21639;SDS011;10981;45.462;10.974;2022-10-16T08:16:32;91.00;;;47.83;;
21639;SDS011;10981;45.462;10.974;2022-10-16T08:19:01;85.53;;;48.55;;
21639;SDS011;10981;45.462;10.974;2022-10-16T08:21:29;86.28;;;48.83;;
21639;SDS011;10981;45.462;10.974;2022-10-16T08:23:57;97.32;;;50.70;;
21639;SDS011;10981;45.462;10.974;2022-10-16T08:26:27;91.97;;;49.53;;
21639;SDS011;10981;45.462;10.974;2022-10-16T08:28:56;88.43;;;51.33;;
21639;SDS011;10981;45.462;10.974;2022-10-16T08:31:27;93.43;;;50.42;;
21639;SDS011;10981;45.462;10.974;2022-10-16T08:33:56;94.95;;;50.67;;
21639;SDS011;10981;45.462;10.974;2022-10-16T08:36:24;91.00;;;51.25;;
21639;SDS011;10981;45.462;10.974;2022-10-16T08:38:52;94.68;;;49.47;;
21639;SDS011;10981;45.462;10.974;2022-10-16T08:41:31;90.80;;;47.10;;
21639;SDS011;10981;45.462;10.974;2022-10-16T08:47:18;94.72;;;50.08;;
21639;SDS011;10981;45.462;10.974;2022-10-16T08:50:08;94.80;;;51.40;;
21639;SDS011;10981;45.462;10.974;2022-10-16T08:52:40;99.60;;;52.10;;
21639;SDS011;10981;45.462;10.974;2022-10-16T08:55:16;95.13;;;49.80;;
21639;SDS011;10981;45.462;10.974;2022-10-16T08:58:16;100.53;;;53.10;;
21639;SDS011;10981;45.462;10.974;2022-10-16T09:00:47;97.82;;;51.28;;
21639;SDS011;10981;45.462;10.974;2022-10-16T09:12:28;90.18;;;48.65;;
21639;SDS011;10981;45.462;10.974;2022-10-16T09:18:02;98.10;;;51.88;;
21639;SDS011;10981;45.462;10.974;2022-10-16T09:20:36;98.13;;;50.97;;
21639;SDS011;10981;45.462;10.974;2022-10-16T09:23:25;91.90;;;49.75;;
21639;SDS011;10981;45.462;10.974;2022-10-16T09:25:58;93.93;;;50.40;;
21639;SDS011;10981;45.462;10.974;2022-10-16T09:28:29;88.97;;;49.33;;
21639;SDS011;10981;45.462;10.974;2022-10-16T09:30:59;95.55;;;50.67;;
21639;SDS011;10981;45.462;10.974;2022-10-16T09:33:32;88.70;;;51.15;;
21639;SDS011;10981;45.462;10.974;2022-10-16T09:36:04;98.22;;;50.53;;
21639;SDS011;10981;45.462;10.974;2022-10-16T09:38:34;90.78;;;49.97;;
21639;SDS011;10981;45.462;10.974;2022-10-16T09:41:12;98.38;;;51.20;;
21639;SDS011;10981;45.462;10.974;2022-10-16T09:43:52;89.50;;;50.20;;
21639;SDS011;10981;45.462;10.974;2022-10-16T09:46:22;87.82;;;48.90;;
21639;SDS011;10981;45.462;10.974;2022-10-16T09:51:45;91.57;;;50.55;;
21639;SDS011;10981;45.462;10.974;2022-10-16T09:54:15;87.32;;;49.13;;
21639;SDS011;10981;45.462;10.974;2022-10-16T09:56:48;89.18;;;49.92;;
21639;SDS011;10981;45.462;10.974;2022-10-16T09:59:19;88.95;;;50.53;;
21639;SDS011;10981;45.462;10.974;2022-10-16T10:01:54;94.47;;;52.20;;
21639;SDS011;10981;45.462;10.974;2022-10-16T10:04:26;95.63;;;54.17;;
21639;SDS011;10981;45.462;10.974;2022-10-16T10:07:07;94.22;;;52.00;;
21639;SDS011;10981;45.462;10.974;2022-10-16T10:09:47;96.95;;;52.22;;
21639;SDS011;10981;45.462;10.974;2022-10-16T10:12:20;97.00;;;53.47;;
21639;SDS011;10981;45.462;10.974;2022-10-16T10:14:56;87.53;;;51.10;;
21639;SDS011;10981;45.462;10.974;2022-10-16T10:17:31;95.35;;;52.13;;
21639;SDS011;10981;45.462;10.974;2022-10-16T10:20:00;100.45;;;52.47;;
21639;SDS011;10981;45.462;10.974;2022-10-16T10:22:49;103.78;;;53.88;;
21639;SDS011;10981;45.462;10.974;2022-10-16T10:25:29;92.68;;;52.67;;
21639;SDS011;10981;45.462;10.974;2022-10-16T10:50:28;81.70;;;47.50;;
21639;SDS011;10981;45.462;10.974;2022-10-16T10:55:48;85.10;;;46.50;;
21639;SDS011;10981;45.462;10.974;2022-10-16T11:01:09;84.65;;;45.30;;
21639;SDS011;10981;45.462;10.974;2022-10-16T11:03:51;79.85;;;46.97;;
21639;SDS011;10981;45.462;10.974;2022-10-16T11:09:15;82.15;;;48.40;;
21639;SDS011;10981;45.462;10.974;2022-10-16T11:11:56;87.30;;;49.80;;
21639;SDS011;10981;45.462;10.974;2022-10-16T11:14:30;89.35;;;50.25;;
21639;SDS011;10981;45.462;10.974;2022-10-16T11:17:23;86.28;;;48.92;;
21639;SDS011;10981;45.462;10.974;2022-10-16T11:20:11;86.53;;;50.78;;
21639;SDS011;10981;45.462;10.974;2022-10-16T11:23:30;89.90;;;48.08;;
21639;SDS011;10981;45.462;10.974;2022-10-16T11:25:42;84.30;;;46.72;;
21639;SDS011;10981;45.462;10.974;2022-10-16T11:30:59;85.18;;;47.30;;
21639;SDS011;10981;45.462;10.974;2022-10-16T11:36:39;83.55;;;48.58;;
21639;SDS011;10981;45.462;10.974;2022-10-16T11:39:17;86.90;;;47.15;;
21639;SDS011;10981;45.462;10.974;2022-10-16T11:47:34;77.70;;;46.85;;
21639;SDS011;10981;45.462;10.974;2022-10-16T11:50:30;82.82;;;47.00;;
21639;SDS011;10981;45.462;10.974;2022-10-16T11:53:23;79.50;;;46.42;;
21639;SDS011;10981;45.462;10.974;2022-10-16T11:55:55;83.93;;;47.70;;
21639;SDS011;10981;45.462;10.974;2022-10-16T12:08:55;74.32;;;44.13;;
21639;SDS011;10981;45.462;10.974;2022-10-16T12:16:38;84.43;;;48.58;;
21639;SDS011;10981;45.462;10.974;2022-10-16T12:19:18;81.00;;;50.13;;
21639;SDS011;10981;45.462;10.974;2022-10-16T12:21:55;78.20;;;48.97;;
21639;SDS011;10981;45.462;10.974;2022-10-16T12:24:44;80.03;;;47.58;;
21639;SDS011;10981;45.462;10.974;2022-10-16T12:27:35;77.60;;;47.17;;
21639;SDS011;10981;45.462;10.974;2022-10-16T12:30:05;77.22;;;47.15;;
21639;SDS011;10981;45.462;10.974;2022-10-16T12:32:35;80.10;;;48.08;;
21639;SDS011;10981;45.462;10.974;2022-10-16T12:38:16;77.00;;;47.60;;
21639;SDS011;10981;45.462;10.974;2022-10-16T12:40:56;78.13;;;47.53;;
21639;SDS011;10981;45.462;10.974;2022-10-16T12:43:44;84.18;;;46.95;;
21639;SDS011;10981;45.462;10.974;2022-10-16T12:48:42;80.55;;;47.83;;
21639;SDS011;10981;45.462;10.974;2022-10-16T12:54:12;79.93;;;48.20;;
21639;SDS011;10981;45.462;10.974;2022-10-16T13:22:11;72.82;;;47.40;;
21639;SDS011;10981;45.462;10.974;2022-10-16T13:25:01;79.05;;;47.08;;
21639;SDS011;10981;45.462;10.974;2022-10-16T13:28:06;78.78;;;47.70;;
21639;SDS011;10981;45.462;10.974;2022-10-16T13:30:40;79.15;;;47.40;;
21639;SDS011;10981;45.462;10.974;2022-10-16T13:36:04;73.72;;;45.67;;
21639;SDS011;10981;45.462;10.974;2022-10-16T13:38:34;72.00;;;46.15;;
21639;SDS011;10981;45.462;10.974;2022-10-16T13:41:12;74.65;;;44.70;;
21639;SDS011;10981;45.462;10.974;2022-10-16T13:43:43;76.13;;;47.00;;
21639;SDS011;10981;45.462;10.974;2022-10-16T13:46:15;67.43;;;41.95;;
21639;SDS011;10981;45.462;10.974;2022-10-16T13:48:44;67.20;;;41.67;;
21639;SDS011;10981;45.462;10.974;2022-10-16T13:51:23;69.07;;;43.70;;
21639;SDS011;10981;45.462;10.974;2022-10-16T13:53:51;72.93;;;44.95;;
21639;SDS011;10981;45.462;10.974;2022-10-16T13:56:22;69.85;;;42.90;;
21639;SDS011;10981;45.462;10.974;2022-10-16T13:59:01;70.88;;;44.97;;
21639;SDS011;10981;45.462;10.974;2022-10-16T14:01:40;69.25;;;42.80;;
21639;SDS011;10981;45.462;10.974;2022-10-16T14:04:11;64.88;;;41.80;;
21639;SDS011;10981;45.462;10.974;2022-10-16T14:06:41;67.97;;;42.58;;
21639;SDS011;10981;45.462;10.974;2022-10-16T14:09:28;70.75;;;41.25;;
21639;SDS011;10981;45.462;10.974;2022-10-16T14:11:58;67.18;;;41.45;;
21639;SDS011;10981;45.462;10.974;2022-10-16T14:14:45;65.82;;;42.53;;
21639;SDS011;10981;45.462;10.974;2022-10-16T14:17:16;62.80;;;40.05;;
21639;SDS011;10981;45.462;10.974;2022-10-16T14:19:46;70.18;;;42.45;;
21639;SDS011;10981;45.462;10.974;2022-10-16T14:25:13;65.28;;;40.72;;
21639;SDS011;10981;45.462;10.974;2022-10-16T14:28:01;70.43;;;41.95;;
21639;SDS011;10981;45.462;10.974;2022-10-16T14:30:33;70.38;;;40.75;;
21639;SDS011;10981;45.462;10.974;2022-10-16T14:33:04;68.40;;;42.15;;
21639;SDS011;10981;45.462;10.974;2022-10-16T14:35:45;71.18;;;41.40;;
21639;SDS011;10981;45.462;10.974;2022-10-16T14:38:18;67.13;;;39.42;;
21639;SDS011;10981;45.462;10.974;2022-10-16T14:40:48;69.93;;;40.60;;
21639;SDS011;10981;45.462;10.974;2022-10-16T14:43:21;70.60;;;41.63;;
21639;SDS011;10981;45.462;10.974;2022-10-16T14:45:56;69.95;;;42.40;;
21639;SDS011;10981;45.462;10.974;2022-10-16T14:48:24;64.75;;;39.58;;
21639;SDS011;10981;45.462;10.974;2022-10-16T14:50:53;68.22;;;39.40;;
21639;SDS011;10981;45.462;10.974;2022-10-16T14:53:22;66.40;;;41.42;;
21639;SDS011;10981;45.462;10.974;2022-10-16T14:55:50;66.95;;;41.03;;
21639;SDS011;10981;45.462;10.974;2022-10-16T14:58:21;65.20;;;40.30;;
21639;SDS011;10981;45.462;10.974;2022-10-16T15:00:55;68.82;;;39.35;;
21639;SDS011;10981;45.462;10.974;2022-10-16T15:03:23;66.82;;;39.90;;
21639;SDS011;10981;45.462;10.974;2022-10-16T15:05:51;69.22;;;39.17;;
21639;SDS011;10981;45.462;10.974;2022-10-16T15:08:20;62.60;;;37.20;;
21639;SDS011;10981;45.462;10.974;2022-10-16T15:10:48;62.88;;;36.25;;
21639;SDS011;10981;45.462;10.974;2022-10-16T15:13:16;57.85;;;33.72;;
21639;SDS011;10981;45.462;10.974;2022-10-16T15:15:45;57.25;;;35.40;;
21639;SDS011;10981;45.462;10.974;2022-10-16T15:18:14;58.75;;;36.78;;
21639;SDS011;10981;45.462;10.974;2022-10-16T15:20:48;51.97;;;32.40;;
21639;SDS011;10981;45.462;10.974;2022-10-16T15:23:18;51.42;;;32.33;;
21639;SDS011;10981;45.462;10.974;2022-10-16T15:25:49;51.47;;;30.20;;
21639;SDS011;10981;45.462;10.974;2022-10-16T15:28:19;51.78;;;29.25;;
21639;SDS011;10981;45.462;10.974;2022-10-16T15:30:50;50.80;;;30.63;;
21639;SDS011;10981;45.462;10.974;2022-10-16T15:33:21;45.50;;;28.45;;
21639;SDS011;10981;45.462;10.974;2022-10-16T15:35:54;43.42;;;27.30;;
21639;SDS011;10981;45.462;10.974;2022-10-16T15:38:22;50.00;;;29.08;;
21639;SDS011;10981;45.462;10.974;2022-10-16T15:40:51;52.28;;;28.95;;
21639;SDS011;10981;45.462;10.974;2022-10-16T15:43:20;48.70;;;28.23;;
21639;SDS011;10981;45.462;10.974;2022-10-16T15:48:32;40.67;;;25.23;;
21639;SDS011;10981;45.462;10.974;2022-10-16T15:51:05;47.80;;;26.67;;
21639;SDS011;10981;45.462;10.974;2022-10-16T15:53:34;40.37;;;25.23;;
21639;SDS011;10981;45.462;10.974;2022-10-16T15:56:03;44.10;;;26.10;;
21639;SDS011;10981;45.462;10.974;2022-10-16T15:58:32;45.17;;;27.42;;
21639;SDS011;10981;45.462;10.974;2022-10-16T16:01:01;41.75;;;26.60;;
21639;SDS011;10981;45.462;10.974;2022-10-16T16:03:31;48.90;;;31.15;;
21639;SDS011;10981;45.462;10.974;2022-10-16T16:06:03;53.15;;;29.05;;
21639;SDS011;10981;45.462;10.974;2022-10-16T16:08:32;47.60;;;30.00;;
21639;SDS011;10981;45.462;10.974;2022-10-16T16:11:07;46.90;;;28.10;;
21639;SDS011;10981;45.462;10.974;2022-10-16T16:13:37;47.53;;;26.17;;
21639;SDS011;10981;45.462;10.974;2022-10-16T16:16:07;43.00;;;25.20;;
21639;SDS011;10981;45.462;10.974;2022-10-16T16:18:38;44.53;;;27.52;;
21639;SDS011;10981;45.462;10.974;2022-10-16T16:21:07;44.22;;;29.25;;
21639;SDS011;10981;45.462;10.974;2022-10-16T16:23:37;48.15;;;28.63;;
21639;SDS011;10981;45.462;10.974;2022-10-16T16:28:42;53.00;;;30.55;;
21639;SDS011;10981;45.462;10.974;2022-10-16T16:31:10;54.55;;;32.38;;
21639;SDS011;10981;45.462;10.974;2022-10-16T16:33:38;65.22;;;39.35;;
21639;SDS011;10981;45.462;10.974;2022-10-16T16:36:06;56.17;;;36.15;;
21639;SDS011;10981;45.462;10.974;2022-10-16T16:38:41;58.10;;;34.80;;
21639;SDS011;10981;45.462;10.974;2022-10-16T16:41:28;60.95;;;35.95;;
21639;SDS011;10981;45.462;10.974;2022-10-16T16:44:04;58.17;;;37.05;;
21639;SDS011;10981;45.462;10.974;2022-10-16T16:46:34;59.55;;;37.90;;
21639;SDS011;10981;45.462;10.974;2022-10-16T16:49:03;58.90;;;35.00;;
21639;SDS011;10981;45.462;10.974;2022-10-16T16:51:31;61.78;;;34.05;;
21639;SDS011;10981;45.462;10.974;2022-10-16T16:54:06;58.75;;;32.50;;
21639;SDS011;10981;45.462;10.974;2022-10-16T16:56:36;57.42;;;34.50;;
21639;SDS011;10981;45.462;10.974;2022-10-16T16:59:05;55.25;;;34.58;;
21639;SDS011;10981;45.462;10.974;2022-10-16T17:01:38;57.85;;;34.70;;
21639;SDS011;10981;45.462;10.974;2022-10-16T17:04:07;56.50;;;33.90;;